createdAt,value
2018-03-03T00:00:44.066Z,0.00
2018-03-03T00:01:44.061Z,0.00
2018-03-03T00:02:44.066Z,0.00
2018-03-03T00:03:44.083Z,0.00
2018-03-03T00:04:44.112Z,0.00
2018-03-03T00:05:44.119Z,0.00
2018-03-03T00:06:44.175Z,0.00
2018-03-03T00:07:44.143Z,0.00
2018-03-03T00:08:44.155Z,0.00
2018-03-03T00:09:44.173Z,0.00
2018-03-03T00:10:44.186Z,0.00
2018-03-03T00:11:44.196Z,0.00
2018-03-03T00:12:44.216Z,0.00
2018-03-03T00:13:44.223Z,0.00
2018-03-03T00:14:44.239Z,0.00
2018-03-03T00:15:44.250Z,0.00
2018-03-03T00:16:44.268Z,0.00
2018-03-03T00:17:44.276Z,0.00
2018-03-03T00:18:44.300Z,0.00
2018-03-03T00:19:44.389Z,0.00
2018-03-03T00:20:44.324Z,0.00
2018-03-03T00:21:44.342Z,0.00
2018-03-03T00:22:44.350Z,0.00
2018-03-03T00:23:44.370Z,0.00
2018-03-03T00:24:44.378Z,0.00
2018-03-03T00:25:44.387Z,0.00
2018-03-03T00:26:44.407Z,0.00
2018-03-03T00:27:44.415Z,0.00
2018-03-03T00:28:44.438Z,0.00
2018-03-03T00:29:44.458Z,0.00
2018-03-03T00:30:44.461Z,0.00
2018-03-03T00:31:44.481Z,0.00
2018-03-03T00:32:44.496Z,0.00
2018-03-03T00:33:44.509Z,0.00
2018-03-03T00:34:44.518Z,0.00
2018-03-03T00:35:44.535Z,0.00
2018-03-03T00:36:44.551Z,0.00
2018-03-03T00:37:44.567Z,0.00
2018-03-03T00:38:44.570Z,0.00
2018-03-03T00:39:44.583Z,0.00
2018-03-03T00:40:44.595Z,0.00
2018-03-03T00:41:44.616Z,0.00
2018-03-03T00:42:44.629Z,0.00
2018-03-03T00:43:44.637Z,0.00
2018-03-03T00:44:44.668Z,0.00
2018-03-03T00:45:44.667Z,0.00
2018-03-03T00:46:44.682Z,0.00
2018-03-03T00:47:44.692Z,0.00
2018-03-03T00:48:44.714Z,0.00
2018-03-03T00:49:44.815Z,0.00
2018-03-03T00:50:44.744Z,0.00
2018-03-03T00:51:44.756Z,0.00
2018-03-03T00:52:44.762Z,0.00
2018-03-03T00:53:44.779Z,0.00
2018-03-03T00:54:44.806Z,0.00
2018-03-03T00:55:44.824Z,0.00
2018-03-03T00:56:44.844Z,0.00
2018-03-03T00:57:44.834Z,0.00
2018-03-03T00:58:44.847Z,0.00
2018-03-03T00:59:44.875Z,0.00
2018-03-03T01:00:44.889Z,0.00
2018-03-03T01:01:44.888Z,0.00
2018-03-03T01:02:44.901Z,0.00
2018-03-03T01:03:44.920Z,0.00
2018-03-03T01:04:44.931Z,0.00
2018-03-03T01:05:44.941Z,0.00
2018-03-03T01:06:44.965Z,0.00
2018-03-03T01:07:44.976Z,0.00
2018-03-03T01:08:44.985Z,0.00
2018-03-03T01:09:45.018Z,0.00
2018-03-03T01:10:45.017Z,0.00
2018-03-03T01:11:45.039Z,0.00
2018-03-03T01:12:45.039Z,0.00
2018-03-03T01:13:45.051Z,0.00
2018-03-03T01:14:45.085Z,0.00
2018-03-03T01:15:45.087Z,0.00
2018-03-03T01:16:45.092Z,0.00
2018-03-03T01:17:45.112Z,0.00
2018-03-03T01:18:45.126Z,0.00
2018-03-03T01:19:45.140Z,0.00
2018-03-03T01:20:45.162Z,0.00
2018-03-03T01:21:45.170Z,0.00
2018-03-03T01:22:45.186Z,0.00
2018-03-03T01:23:45.193Z,0.00
2018-03-03T01:24:45.207Z,0.00
2018-03-03T01:25:45.234Z,0.00
2018-03-03T01:26:45.230Z,0.00
2018-03-03T01:27:45.247Z,0.00
2018-03-03T01:28:45.261Z,0.00
2018-03-03T01:29:45.277Z,0.00
2018-03-03T01:30:45.307Z,0.00
2018-03-03T01:31:45.310Z,0.00
2018-03-03T01:32:45.328Z,0.00
2018-03-03T01:33:45.330Z,0.00
2018-03-03T01:34:45.340Z,0.00
2018-03-03T01:35:45.357Z,0.00
2018-03-03T01:36:45.370Z,0.00
2018-03-03T01:37:45.402Z,0.00
2018-03-03T01:38:45.416Z,0.00
2018-03-03T01:39:45.419Z,0.00
2018-03-03T01:40:45.425Z,0.00
2018-03-03T01:41:45.458Z,0.00
2018-03-03T01:42:45.467Z,0.00
2018-03-03T01:43:45.467Z,0.00
2018-03-03T01:44:45.485Z,0.00
2018-03-03T01:45:45.500Z,0.00
2018-03-03T01:46:45.512Z,0.00
2018-03-03T01:47:45.539Z,0.00
2018-03-03T01:48:45.539Z,0.00
2018-03-03T01:49:45.547Z,0.00
2018-03-03T01:50:45.560Z,0.00
2018-03-03T01:51:45.576Z,0.00
2018-03-03T01:52:45.608Z,0.00
2018-03-03T01:53:45.617Z,0.00
2018-03-03T01:54:45.623Z,0.00
2018-03-03T01:55:45.639Z,0.00
2018-03-03T01:56:45.655Z,0.00
2018-03-03T01:57:45.671Z,0.00
2018-03-03T01:58:45.679Z,0.00
2018-03-03T01:59:45.700Z,0.00
2018-03-03T02:00:45.713Z,0.00
2018-03-03T02:01:45.712Z,0.00
2018-03-03T02:02:45.729Z,0.00
2018-03-03T02:03:45.741Z,0.00
2018-03-03T02:04:45.756Z,0.00
2018-03-03T02:05:45.770Z,0.00
2018-03-03T02:06:45.781Z,0.00
2018-03-03T02:07:45.794Z,0.00
2018-03-03T02:08:45.816Z,0.00
2018-03-03T02:09:45.825Z,0.00
2018-03-03T02:10:45.844Z,0.00
2018-03-03T02:11:45.849Z,0.00
2018-03-03T02:12:45.870Z,0.00
2018-03-03T02:13:45.873Z,0.00
2018-03-03T02:14:45.900Z,0.00
2018-03-03T02:15:45.910Z,0.00
2018-03-03T02:16:45.918Z,0.00
2018-03-03T02:17:45.935Z,0.00
2018-03-03T02:18:45.943Z,0.00
2018-03-03T02:19:45.962Z,0.00
2018-03-03T02:20:45.972Z,0.00
2018-03-03T02:21:45.983Z,0.00
2018-03-03T02:22:46.000Z,0.00
2018-03-03T02:23:46.010Z,0.00
2018-03-03T02:24:46.029Z,0.00
2018-03-03T02:25:46.043Z,0.00
2018-03-03T02:26:46.058Z,0.00
2018-03-03T02:27:46.074Z,0.00
2018-03-03T02:28:46.087Z,0.00
2018-03-03T02:29:46.103Z,0.00
2018-03-03T02:30:46.112Z,0.00
2018-03-03T02:31:46.123Z,0.00
2018-03-03T02:32:46.140Z,0.00
2018-03-03T02:33:46.144Z,0.00
2018-03-03T02:34:46.170Z,0.00
2018-03-03T02:35:46.175Z,0.00
2018-03-03T02:36:46.192Z,0.00
2018-03-03T02:37:46.205Z,0.00
2018-03-03T02:38:46.215Z,0.00
2018-03-03T02:39:46.227Z,0.00
2018-03-03T02:40:46.246Z,0.00
2018-03-03T02:41:46.258Z,0.00
2018-03-03T02:42:46.271Z,0.00
2018-03-03T02:43:46.284Z,0.00
2018-03-03T02:44:46.313Z,0.00
2018-03-03T02:45:46.314Z,0.00
2018-03-03T02:46:46.329Z,0.00
2018-03-03T02:47:46.340Z,0.00
2018-03-03T02:48:46.372Z,0.00
2018-03-03T02:49:46.384Z,0.00
2018-03-03T02:50:46.382Z,0.00
2018-03-03T02:51:46.392Z,0.00
2018-03-03T02:52:46.404Z,0.00
2018-03-03T02:53:46.425Z,0.00
2018-03-03T02:54:46.430Z,0.00
2018-03-03T02:55:46.463Z,0.00
2018-03-03T02:56:46.472Z,0.00
2018-03-03T02:57:46.479Z,0.00
2018-03-03T02:58:46.486Z,0.00
2018-03-03T02:59:46.505Z,0.00
2018-03-03T03:00:46.519Z,0.00
2018-03-03T03:01:46.531Z,0.00
2018-03-03T03:02:46.665Z,0.00
2018-03-03T03:03:46.551Z,0.00
2018-03-03T03:04:46.668Z,0.00
2018-03-03T03:05:46.582Z,0.00
2018-03-03T03:06:46.609Z,0.00
2018-03-03T03:07:46.609Z,0.00
2018-03-03T03:08:46.629Z,0.00
2018-03-03T03:09:46.633Z,0.00
2018-03-03T03:10:46.647Z,0.00
2018-03-03T03:11:46.659Z,0.00
2018-03-03T03:12:46.670Z,0.00
2018-03-03T03:13:46.696Z,0.00
2018-03-03T03:14:46.700Z,0.00
2018-03-03T03:15:46.714Z,0.00
2018-03-03T03:16:46.731Z,0.00
2018-03-03T03:17:47.440Z,0.00
2018-03-03T03:18:46.752Z,0.00
2018-03-03T03:19:46.769Z,0.00
2018-03-03T03:20:46.783Z,0.00
2018-03-03T03:21:46.845Z,0.00
2018-03-03T03:22:46.805Z,0.00
2018-03-03T03:23:46.819Z,0.00
2018-03-03T03:24:46.832Z,0.00
2018-03-03T03:25:46.844Z,0.00
2018-03-03T03:26:46.857Z,0.00
2018-03-03T03:27:46.878Z,0.00
2018-03-03T03:28:46.908Z,0.00
2018-03-03T03:29:46.898Z,0.00
2018-03-03T03:30:46.919Z,0.00
2018-03-03T03:31:46.936Z,0.00
2018-03-03T03:32:46.943Z,0.00
2018-03-03T03:33:46.949Z,0.00
2018-03-03T03:34:46.963Z,0.00
2018-03-03T03:35:46.975Z,0.00
2018-03-03T03:36:46.995Z,0.00
2018-03-03T03:37:47.001Z,0.00
2018-03-03T03:38:47.017Z,0.00
2018-03-03T03:39:47.035Z,0.00
2018-03-03T03:40:47.045Z,0.00
2018-03-03T03:41:47.060Z,0.00
2018-03-03T03:42:47.069Z,0.00
2018-03-03T03:43:47.096Z,0.00
2018-03-03T03:44:47.097Z,0.00
2018-03-03T03:45:47.108Z,0.00
2018-03-03T03:46:47.121Z,0.00
2018-03-03T03:47:47.141Z,0.00
2018-03-03T03:48:47.159Z,0.00
2018-03-03T03:49:47.166Z,0.00
2018-03-03T03:50:47.177Z,0.00
2018-03-03T03:51:47.185Z,0.00
2018-03-03T03:52:47.208Z,0.00
2018-03-03T03:53:47.220Z,0.00
2018-03-03T03:54:47.228Z,0.00
2018-03-03T03:55:47.242Z,0.00
2018-03-03T03:56:47.263Z,0.00
2018-03-03T03:57:47.268Z,0.00
2018-03-03T03:58:47.282Z,0.00
2018-03-03T03:59:47.293Z,0.00
2018-03-03T04:00:47.306Z,0.00
2018-03-03T04:01:47.320Z,0.00
2018-03-03T04:02:47.334Z,0.00
2018-03-03T04:03:47.356Z,0.00
2018-03-03T04:04:47.368Z,0.00
2018-03-03T04:05:47.377Z,0.00
2018-03-03T04:06:47.385Z,0.00
2018-03-03T04:07:47.399Z,0.00
2018-03-03T04:08:47.425Z,0.00
2018-03-03T04:09:47.434Z,0.00
2018-03-03T04:10:47.440Z,0.00
2018-03-03T04:11:47.449Z,0.00
2018-03-03T04:12:47.461Z,0.00
2018-03-03T04:13:47.480Z,0.00
2018-03-03T04:14:47.490Z,0.00
2018-03-03T04:15:47.510Z,0.00
2018-03-03T04:16:47.524Z,0.00
2018-03-03T04:17:47.533Z,0.00
2018-03-03T04:18:47.544Z,0.00
2018-03-03T04:19:47.554Z,0.00
2018-03-03T04:20:47.571Z,0.00
2018-03-03T04:21:47.588Z,0.00
2018-03-03T04:22:47.598Z,0.00
2018-03-03T04:23:47.607Z,0.00
2018-03-03T04:24:47.625Z,0.00
2018-03-03T04:25:47.637Z,0.00
2018-03-03T04:26:47.647Z,0.00
2018-03-03T04:27:47.691Z,0.00
2018-03-03T04:28:47.675Z,0.00
2018-03-03T04:29:47.685Z,0.00
2018-03-03T04:30:47.699Z,0.00
2018-03-03T04:31:47.713Z,0.00
2018-03-03T04:32:47.738Z,0.00
2018-03-03T04:33:47.755Z,0.00
2018-03-03T04:34:47.755Z,0.00
2018-03-03T04:35:47.825Z,0.00
2018-03-03T04:36:47.818Z,0.00
2018-03-03T04:37:47.789Z,0.00
2018-03-03T04:38:47.807Z,0.00
2018-03-03T04:39:47.827Z,0.00
2018-03-03T04:40:47.827Z,0.00
2018-03-03T04:41:47.846Z,0.00
2018-03-03T04:42:47.856Z,0.00
2018-03-03T04:43:47.866Z,0.00
2018-03-03T04:44:47.891Z,0.00
2018-03-03T04:45:47.898Z,0.00
2018-03-03T04:46:47.919Z,0.00
2018-03-03T04:47:47.928Z,0.00
2018-03-03T04:48:48.008Z,0.00
2018-03-03T04:49:47.993Z,0.00
2018-03-03T04:50:47.961Z,0.00
2018-03-03T04:51:47.989Z,0.00
2018-03-03T04:52:47.983Z,0.00
2018-03-03T04:53:47.999Z,0.00
2018-03-03T04:54:48.019Z,0.00
2018-03-03T04:55:48.032Z,0.00
2018-03-03T04:56:48.050Z,0.00
2018-03-03T04:57:48.048Z,0.00
2018-03-03T04:58:48.063Z,0.00
2018-03-03T04:59:48.083Z,0.00
2018-03-03T05:00:48.091Z,0.00
2018-03-03T05:01:48.112Z,0.00
2018-03-03T05:02:48.117Z,0.00
2018-03-03T05:03:48.155Z,0.00
2018-03-03T05:04:48.140Z,0.00
2018-03-03T05:05:48.149Z,0.00
2018-03-03T05:06:48.181Z,0.00
2018-03-03T05:07:48.181Z,0.00
2018-03-03T05:08:48.201Z,0.00
2018-03-03T05:09:48.208Z,0.00
2018-03-03T05:10:48.225Z,0.00
2018-03-03T05:11:48.233Z,0.00
2018-03-03T05:12:48.243Z,0.00
2018-03-03T05:13:48.253Z,0.00
2018-03-03T05:14:48.276Z,0.00
2018-03-03T05:15:48.283Z,0.00
2018-03-03T05:16:48.295Z,0.00
2018-03-03T05:17:48.303Z,0.00
2018-03-03T05:18:48.323Z,0.00
2018-03-03T05:19:48.334Z,0.00
2018-03-03T05:20:48.350Z,0.00
2018-03-03T05:21:48.454Z,0.00
2018-03-03T05:22:48.369Z,4.00
2018-03-03T05:23:48.388Z,0.00
2018-03-03T05:24:48.410Z,0.00
2018-03-03T05:25:48.428Z,4.00
2018-03-03T05:26:48.424Z,4.00
2018-03-03T05:27:48.436Z,0.00
2018-03-03T05:28:48.447Z,4.00
2018-03-03T05:29:48.463Z,4.00
2018-03-03T05:30:48.474Z,4.00
2018-03-03T05:31:48.495Z,4.00
2018-03-03T05:32:48.507Z,4.00
2018-03-03T05:33:48.522Z,8.00
2018-03-03T05:34:48.520Z,8.00
2018-03-03T05:35:48.538Z,8.00
2018-03-03T05:36:48.670Z,12.00
2018-03-03T05:37:48.569Z,12.00
2018-03-03T05:38:48.613Z,16.00
2018-03-03T05:39:48.589Z,12.00
2018-03-03T05:40:48.607Z,16.00
2018-03-03T05:41:48.647Z,20.00
2018-03-03T05:42:48.631Z,20.00
2018-03-03T05:43:48.645Z,24.00
2018-03-03T05:44:48.650Z,28.00
2018-03-03T05:45:48.669Z,28.00
2018-03-03T05:46:48.690Z,36.00
2018-03-03T05:47:48.695Z,36.00
2018-03-03T05:48:48.712Z,40.00
2018-03-03T05:49:48.714Z,44.00
2018-03-03T05:50:48.731Z,48.00
2018-03-03T05:51:48.817Z,52.00
2018-03-03T05:52:48.753Z,56.00
2018-03-03T05:53:48.777Z,64.00
2018-03-03T05:54:48.777Z,68.00
2018-03-03T05:55:48.791Z,76.00
2018-03-03T05:56:48.802Z,80.00
2018-03-03T05:57:48.825Z,84.00
2018-03-03T05:58:48.827Z,92.00
2018-03-03T05:59:48.848Z,96.00
2018-03-03T06:00:48.859Z,108.00
2018-03-03T06:01:48.871Z,108.00
2018-03-03T06:02:48.878Z,116.00
2018-03-03T06:03:48.903Z,128.00
2018-03-03T06:04:48.905Z,136.00
2018-03-03T06:05:48.915Z,144.00
2018-03-03T06:06:48.936Z,152.00
2018-03-03T06:07:48.950Z,160.00
2018-03-03T06:08:49.045Z,168.00
2018-03-03T06:09:48.977Z,176.00
2018-03-03T06:10:48.989Z,188.00
2018-03-03T06:11:49.001Z,192.00
2018-03-03T06:12:49.012Z,204.00
2018-03-03T06:13:49.024Z,212.00
2018-03-03T06:14:49.037Z,220.00
2018-03-03T06:15:49.063Z,232.00
2018-03-03T06:16:49.076Z,240.00
2018-03-03T06:17:49.082Z,252.00
2018-03-03T06:18:49.090Z,260.00
2018-03-03T06:19:49.113Z,276.00
2018-03-03T06:20:49.111Z,284.00
2018-03-03T06:21:49.123Z,296.00
2018-03-03T06:22:49.136Z,304.00
2018-03-03T06:23:49.148Z,316.00
2018-03-03T06:24:49.159Z,328.00
2018-03-03T06:25:49.206Z,340.00
2018-03-03T06:26:49.199Z,352.00
2018-03-03T06:27:49.203Z,360.00
2018-03-03T06:28:49.217Z,372.00
2018-03-03T06:29:49.230Z,384.00
2018-03-03T06:30:49.242Z,396.00
2018-03-03T06:31:49.267Z,408.00
2018-03-03T06:32:49.265Z,420.00
2018-03-03T06:33:49.283Z,432.00
2018-03-03T06:34:49.292Z,440.00
2018-03-03T06:35:49.308Z,456.00
2018-03-03T06:36:49.313Z,464.00
2018-03-03T06:37:49.344Z,472.00
2018-03-03T06:38:49.348Z,484.00
2018-03-03T06:39:49.356Z,500.00
2018-03-03T06:40:49.424Z,508.00
2018-03-03T06:41:49.380Z,520.00
2018-03-03T06:42:49.392Z,536.00
2018-03-03T06:43:49.404Z,548.00
2018-03-03T06:44:49.418Z,564.00
2018-03-03T06:45:49.433Z,576.00
2018-03-03T06:46:49.444Z,584.00
2018-03-03T06:47:49.459Z,596.00
2018-03-03T06:48:49.469Z,604.00
2018-03-03T06:49:49.480Z,620.00
2018-03-03T06:50:49.515Z,636.00
2018-03-03T06:51:49.527Z,644.00
2018-03-03T06:52:49.523Z,656.00
2018-03-03T06:53:49.582Z,668.00
2018-03-03T06:54:49.548Z,676.00
2018-03-03T06:55:49.569Z,688.00
2018-03-03T06:56:49.574Z,700.00
2018-03-03T06:57:49.579Z,704.00
2018-03-03T06:58:49.602Z,720.00
2018-03-03T06:59:49.605Z,728.00
2018-03-03T07:00:49.630Z,740.00
2018-03-03T07:01:49.635Z,760.00
2018-03-03T07:02:49.658Z,768.00
2018-03-03T07:03:49.665Z,772.00
2018-03-03T07:04:49.685Z,788.00
2018-03-03T07:06:49.708Z,824.00
2018-03-03T07:07:49.729Z,824.00
2018-03-03T07:08:49.736Z,828.00
2018-03-03T07:09:49.747Z,840.00
2018-03-03T07:10:49.765Z,848.00
2018-03-03T07:11:49.768Z,884.00
2018-03-03T07:12:49.781Z,892.00
2018-03-03T07:13:49.800Z,884.00
2018-03-03T07:14:49.802Z,908.00
2018-03-03T07:15:49.818Z,932.00
2018-03-03T07:16:49.838Z,940.00
2018-03-03T07:17:49.848Z,928.00
2018-03-03T07:18:49.861Z,944.00
2018-03-03T07:19:49.874Z,968.00
2018-03-03T07:20:49.877Z,992.00
2018-03-03T07:21:49.896Z,988.00
2018-03-03T07:22:49.921Z,992.00
2018-03-03T07:23:49.923Z,988.00
2018-03-03T07:24:49.942Z,1024.00
2018-03-03T07:25:49.946Z,1032.00
2018-03-03T07:26:49.970Z,1048.00
2018-03-03T07:27:49.980Z,1068.00
2018-03-03T07:28:49.989Z,1060.00
2018-03-03T07:29:50.002Z,1080.00
2018-03-03T07:30:50.013Z,1096.00
2018-03-03T07:31:50.027Z,1108.00
2018-03-03T07:32:50.045Z,1108.00
2018-03-03T07:33:50.051Z,1136.00
2018-03-03T07:34:50.066Z,1140.00
2018-03-03T07:35:50.078Z,1156.00
2018-03-03T07:36:50.090Z,1160.00
2018-03-03T07:37:50.118Z,1172.00
2018-03-03T07:38:50.240Z,1184.00
2018-03-03T07:39:50.147Z,1204.00
2018-03-03T07:40:50.157Z,1204.00
2018-03-03T07:41:50.154Z,1212.00
2018-03-03T07:42:50.173Z,1244.00
2018-03-03T07:43:50.190Z,1248.00
2018-03-03T07:44:50.198Z,1260.00
2018-03-03T07:45:50.210Z,1256.00
2018-03-03T07:46:50.220Z,1268.00
2018-03-03T07:47:50.244Z,1280.00
2018-03-03T07:48:50.247Z,1308.00
2018-03-03T07:49:50.262Z,1304.00
2018-03-03T07:50:50.277Z,1320.00
2018-03-03T07:51:50.285Z,1340.00
2018-03-03T07:52:50.302Z,1352.00
2018-03-03T07:53:50.314Z,1372.00
2018-03-03T07:54:50.330Z,1368.00
2018-03-03T07:55:50.423Z,1392.00
2018-03-03T07:56:50.352Z,1412.00
2018-03-03T07:57:50.379Z,1400.00
2018-03-03T07:58:50.375Z,1436.00
2018-03-03T07:59:50.389Z,1456.00
2018-03-03T08:00:50.416Z,1464.00
2018-03-03T08:01:50.415Z,1484.00
2018-03-03T08:02:50.433Z,1492.00
2018-03-03T08:03:50.445Z,1512.00
2018-03-03T08:04:50.460Z,1504.00
2018-03-03T08:05:50.474Z,1548.00
2018-03-03T08:06:50.481Z,1572.00
2018-03-03T08:07:50.493Z,1540.00
2018-03-03T08:08:50.512Z,1568.00
2018-03-03T08:09:50.520Z,1604.00
2018-03-03T08:10:51.390Z,1640.00
2018-03-03T08:11:50.558Z,1596.00
2018-03-03T08:12:50.628Z,1632.00
2018-03-03T08:13:50.586Z,1640.00
2018-03-03T08:14:50.600Z,1652.00
2018-03-03T08:15:50.599Z,1676.00
2018-03-03T08:16:50.623Z,1672.00
2018-03-03T08:17:50.643Z,1672.00
2018-03-03T08:18:50.646Z,1704.00
2018-03-03T08:19:50.662Z,1732.00
2018-03-03T08:20:50.673Z,1708.00
2018-03-03T08:21:50.687Z,1716.00
2018-03-03T08:22:50.694Z,1728.00
2018-03-03T08:23:50.710Z,1752.00
2018-03-03T08:24:50.723Z,1788.00
2018-03-03T08:25:50.743Z,1772.00
2018-03-03T08:26:50.745Z,1816.00
2018-03-03T08:27:50.764Z,1816.00
2018-03-03T08:28:50.794Z,1828.00
2018-03-03T08:29:50.810Z,1824.00
2018-03-03T08:30:50.808Z,1856.00
2018-03-03T08:31:50.819Z,1892.00
2018-03-03T08:32:50.826Z,1868.00
2018-03-03T08:33:50.839Z,1884.00
2018-03-03T08:34:50.853Z,1936.00
2018-03-03T08:35:50.871Z,1940.00
2018-03-03T08:36:50.883Z,1916.00
2018-03-03T08:37:50.902Z,1932.00
2018-03-03T08:38:50.908Z,1932.00
2018-03-03T08:39:50.927Z,1964.00
2018-03-03T08:40:51.014Z,2000.00
2018-03-03T08:41:51.016Z,2000.00
2018-03-03T08:42:51.251Z,1996.00
2018-03-03T08:43:50.974Z,2020.00
2018-03-03T08:44:51.021Z,2032.00
2018-03-03T08:45:51.023Z,2088.00
2018-03-03T08:46:51.036Z,2064.00
2018-03-03T08:47:51.076Z,2136.00
2018-03-03T08:48:51.051Z,2120.00
2018-03-03T08:49:51.062Z,2168.00
2018-03-03T08:50:51.084Z,2152.00
2018-03-03T08:51:51.091Z,2176.00
2018-03-03T08:52:51.105Z,2192.00
2018-03-03T08:53:51.131Z,2188.00
2018-03-03T08:54:51.160Z,2212.00
2018-03-03T08:55:51.156Z,2220.00
2018-03-03T08:56:51.169Z,2244.00
2018-03-03T08:57:51.179Z,2260.00
2018-03-03T08:58:51.198Z,2328.00
2018-03-03T08:59:51.196Z,2376.00
2018-03-03T09:00:51.232Z,2380.00
2018-03-03T09:01:51.239Z,2332.00
2018-03-03T09:02:51.241Z,2396.00
2018-03-03T09:03:51.257Z,2376.00
2018-03-03T09:04:51.272Z,2472.00
2018-03-03T09:05:51.279Z,2448.00
2018-03-03T09:06:51.308Z,2464.00
2018-03-03T09:07:51.309Z,2484.00
2018-03-03T09:08:51.324Z,2536.00
2018-03-03T09:09:51.398Z,2528.00
2018-03-03T09:10:51.360Z,2476.00
2018-03-03T09:11:51.365Z,2552.00
2018-03-03T09:12:51.375Z,2572.00
2018-03-03T09:13:51.392Z,2688.00
2018-03-03T09:14:51.411Z,2628.00
2018-03-03T09:15:51.430Z,2780.00
2018-03-03T09:16:51.459Z,2664.00
2018-03-03T09:17:51.454Z,2732.00
2018-03-03T09:18:51.474Z,2724.00
2018-03-03T09:19:51.482Z,2740.00
2018-03-03T09:20:51.495Z,2796.00
2018-03-03T09:21:51.509Z,2848.00
2018-03-03T09:22:51.524Z,2940.00
2018-03-03T09:23:51.533Z,3000.00
2018-03-03T09:24:51.559Z,3000.00
2018-03-03T09:25:51.564Z,3172.00
2018-03-03T09:26:51.580Z,3260.00
2018-03-03T09:27:51.588Z,3364.00
2018-03-03T09:28:51.614Z,3484.00
2018-03-03T09:29:51.623Z,3588.00
2018-03-03T09:30:51.643Z,3624.00
2018-03-03T09:31:51.653Z,3736.00
2018-03-03T09:32:51.662Z,3912.00
2018-03-03T09:33:51.689Z,4008.00
2018-03-03T09:34:51.703Z,4176.00
2018-03-03T09:35:51.718Z,4324.00
2018-03-03T09:36:51.731Z,4444.00
2018-03-03T09:37:51.726Z,4584.00
2018-03-03T09:38:51.742Z,4812.00
2018-03-03T09:39:51.762Z,4880.00
2018-03-03T09:40:51.778Z,5076.00
2018-03-03T09:41:51.810Z,5308.00
2018-03-03T09:42:51.825Z,5460.00
2018-03-03T09:43:51.825Z,5688.00
2018-03-03T09:44:51.832Z,5892.00
2018-03-03T09:45:51.853Z,5996.00
2018-03-03T09:46:51.867Z,6540.00
2018-03-03T09:47:51.889Z,7040.00
2018-03-03T09:48:51.889Z,6900.00
2018-03-03T09:49:52.884Z,6872.00
2018-03-03T09:50:51.933Z,6768.00
2018-03-03T09:51:51.936Z,6868.00
2018-03-03T09:52:52.949Z,6772.00
2018-03-03T09:53:51.969Z,6588.00
2018-03-03T09:54:51.982Z,6680.00
2018-03-03T09:55:52.069Z,6824.00
2018-03-03T09:56:52.018Z,6980.00
2018-03-03T09:57:52.036Z,7012.00
2018-03-03T09:58:52.953Z,7108.00
2018-03-03T09:59:52.063Z,7148.00
2018-03-03T10:00:52.084Z,9488.00
2018-03-03T10:01:58.934Z,30752.00
2018-03-03T10:02:52.109Z,49792.00
2018-03-03T10:03:52.122Z,48160.00
2018-03-03T10:04:52.142Z,48416.00
2018-03-03T10:05:52.175Z,51392.00
2018-03-03T10:06:52.172Z,52608.00
2018-03-03T10:07:52.191Z,50208.00
2018-03-03T10:08:52.204Z,52320.00
2018-03-03T10:09:52.228Z,51584.00
2018-03-03T10:10:52.241Z,50144.00
2018-03-03T10:11:52.260Z,50240.00
2018-03-03T10:12:52.288Z,50656.00
2018-03-03T10:13:52.345Z,51616.00
2018-03-03T10:14:52.348Z,46144.00
2018-03-03T10:15:52.338Z,46048.00
2018-03-03T10:16:52.358Z,47936.00
2018-03-03T10:17:52.370Z,51488.00
2018-03-03T10:18:52.409Z,53696.00
2018-03-03T10:19:52.418Z,50848.00
2018-03-03T10:20:52.444Z,50528.00
2018-03-03T10:21:52.555Z,53888.00
2018-03-03T10:22:52.491Z,53696.00
2018-03-03T10:23:52.512Z,53952.00
2018-03-03T10:24:52.541Z,51584.00
2018-03-03T10:25:52.570Z,51744.00
2018-03-03T10:26:52.596Z,50656.00
2018-03-03T10:27:52.617Z,47488.00
2018-03-03T10:28:52.637Z,47712.00
2018-03-03T10:29:52.668Z,49920.00
2018-03-03T10:30:52.698Z,50144.00
2018-03-03T10:31:52.726Z,49984.00
2018-03-03T10:32:52.745Z,50336.00
2018-03-03T10:33:52.766Z,50080.00
2018-03-03T10:34:52.804Z,48640.00
2018-03-03T10:35:52.827Z,48544.00
2018-03-03T10:36:52.878Z,49280.00
2018-03-03T10:37:52.961Z,50656.00
2018-03-03T10:38:52.910Z,50720.00
2018-03-03T10:39:52.934Z,49280.00
2018-03-03T10:40:53.039Z,48448.00
2018-03-03T10:41:52.999Z,47648.00
2018-03-03T10:42:53.013Z,49152.00
2018-03-03T10:43:53.075Z,48288.00
2018-03-03T10:44:53.065Z,51040.00
2018-03-03T10:45:53.095Z,52224.00
2018-03-03T10:46:53.142Z,51136.00
2018-03-03T10:47:53.152Z,51200.00
2018-03-03T10:48:53.190Z,50464.00
2018-03-03T10:49:53.221Z,50304.00
2018-03-03T10:50:53.241Z,48640.00
2018-03-03T10:51:53.286Z,46944.00
2018-03-03T10:52:53.296Z,51008.00
2018-03-03T10:53:53.327Z,56576.00
2018-03-03T10:54:53.352Z,54848.00
2018-03-03T10:55:53.390Z,57024.00
2018-03-03T10:56:53.428Z,58112.00
2018-03-03T10:57:53.454Z,53088.00
2018-03-03T10:58:53.475Z,56448.00
2018-03-03T10:59:53.514Z,59232.00
2018-03-03T11:00:53.541Z,56544.00
2018-03-03T11:01:53.567Z,55616.00
2018-03-03T11:02:53.595Z,51520.00
2018-03-03T11:03:53.623Z,52352.00
2018-03-03T11:04:53.670Z,53088.00
2018-03-03T11:05:53.690Z,52416.00
2018-03-03T11:06:53.713Z,55552.00
2018-03-03T11:07:53.758Z,54912.00
2018-03-03T11:08:53.780Z,52352.00
2018-03-03T11:09:53.807Z,50560.00
2018-03-03T11:10:53.844Z,45088.00
2018-03-03T11:11:53.889Z,43104.00
2018-03-03T11:12:53.898Z,43648.00
2018-03-03T11:13:53.934Z,49792.00
2018-03-03T11:14:53.960Z,52928.00
2018-03-03T11:15:53.987Z,48224.00
2018-03-03T11:16:54.072Z,41952.00
2018-03-03T11:17:54.076Z,36832.00
2018-03-03T11:18:54.098Z,35552.00
2018-03-03T11:19:54.127Z,32032.00
2018-03-03T11:20:54.138Z,30528.00
2018-03-03T11:21:54.178Z,30720.00
2018-03-03T11:22:54.213Z,28000.00
2018-03-03T11:23:54.276Z,32256.00
2018-03-03T11:24:54.265Z,31424.00
2018-03-03T11:25:54.292Z,31936.00
2018-03-03T11:26:54.334Z,31072.00
2018-03-03T11:27:54.366Z,31456.00
2018-03-03T11:28:54.401Z,32256.00
2018-03-03T11:29:54.423Z,31808.00
2018-03-03T11:30:54.474Z,33408.00
2018-03-03T11:31:54.479Z,36064.00
2018-03-03T11:32:54.527Z,35392.00
2018-03-03T11:33:54.551Z,33920.00
2018-03-03T11:34:54.590Z,34080.00
2018-03-03T11:35:54.598Z,33504.00
2018-03-03T11:36:54.630Z,32800.00
2018-03-03T11:37:54.666Z,20896.00
2018-03-03T11:38:54.694Z,23648.00
2018-03-03T11:39:54.738Z,15712.00
2018-03-03T11:40:54.761Z,25728.00
2018-03-03T11:41:54.808Z,28128.00
2018-03-03T11:42:54.831Z,31520.00
2018-03-03T11:43:54.865Z,20896.00
2018-03-03T11:44:54.888Z,23616.00
2018-03-03T11:45:54.903Z,22272.00
2018-03-03T11:46:54.928Z,26656.00
2018-03-03T11:47:54.945Z,31744.00
2018-03-03T11:48:54.985Z,31712.00
2018-03-03T11:49:55.017Z,36352.00
2018-03-03T11:50:55.033Z,43840.00
2018-03-03T11:51:55.061Z,35360.00
2018-03-03T11:52:55.113Z,36672.00
2018-03-03T11:53:55.120Z,24512.00
2018-03-03T11:54:55.170Z,23712.00
2018-03-03T11:55:55.185Z,18528.00
2018-03-03T11:56:55.211Z,20000.00
2018-03-03T11:57:55.234Z,37120.00
2018-03-03T11:58:55.264Z,42464.00
2018-03-03T11:59:55.277Z,43488.00
2018-03-03T12:00:55.315Z,42592.00
2018-03-03T12:01:55.347Z,39552.00
2018-03-03T12:02:55.366Z,42176.00
2018-03-03T12:03:55.418Z,45024.00
2018-03-03T12:04:55.425Z,39552.00
2018-03-03T12:05:55.452Z,39840.00
2018-03-03T12:06:55.502Z,44384.00
2018-03-03T12:07:55.517Z,43840.00
2018-03-03T12:08:55.588Z,38592.00
2018-03-03T12:09:55.565Z,41984.00
2018-03-03T12:10:55.595Z,42528.00
2018-03-03T12:11:55.623Z,36320.00
2018-03-03T12:12:55.675Z,40736.00
2018-03-03T12:13:55.701Z,41056.00
2018-03-03T12:14:55.721Z,44128.00
2018-03-03T12:15:55.751Z,44800.00
2018-03-03T12:16:55.770Z,42368.00
2018-03-03T12:17:55.816Z,40000.00
2018-03-03T12:18:55.846Z,38592.00
2018-03-03T12:19:55.886Z,37216.00
2018-03-03T12:20:55.936Z,37856.00
2018-03-03T12:21:55.928Z,38112.00
2018-03-03T12:22:55.960Z,39552.00
2018-03-03T12:23:55.999Z,38784.00
2018-03-03T12:24:56.027Z,24032.00
2018-03-03T12:25:56.052Z,6500.00
2018-03-03T12:26:56.081Z,4720.00
2018-03-03T12:27:56.120Z,4376.00
2018-03-03T12:28:56.166Z,4124.00
2018-03-03T12:29:56.168Z,3916.00
2018-03-03T12:30:56.201Z,3816.00
2018-03-03T12:31:56.231Z,3796.00
2018-03-03T12:32:56.923Z,3760.00
2018-03-03T12:33:56.300Z,3756.00
2018-03-03T12:34:56.312Z,3696.00
2018-03-03T12:35:56.335Z,3684.00
2018-03-03T12:36:56.364Z,3688.00